LiveATC.Net - Listen to live air traffic control over the Internet!


ICAO: KGKY  IATA: GKY   Airport: Arlington Municipal Airport
City: Arlington   State/Province: Texas
Country: United States   Continent: North America
KGKY METAR Weather: KGKY 250253Z AUTO 00000KT 10SM CLR 28/23 A2990 RMK AO2 SLP113 60000 T02780233 51009
KGKY Flight Activity (FlightAware)
KGKY Airport Info   (iFlightPlanner)
KGKY VFR Sectional Chart   (iFlightPlanner) 
KGKY IFR Low Chart   (iFlightPlanner) 

KGKY Ground/Tower
Feed Status: DOWN
Last heard on: 2019-08-18 07:51:39 (6 days 19 hours 45 minutes ago)
KGKY Ground/Tower Audio Archives
FacilityFrequency
Arlington Ground121.875
Arlington Tower128.625
Feed sponsored by: Lone Star Communications

NOTICE

Unauthorized use prohibited. See LiveATC.net Terms of Service


Airport/ARTCC Code
Frequency Search
(e.g., 124.400, 128.75)
Site-wide search
 


Browse LiveATC Feeds
Top 50 LiveATC Feeds
LiveATC Feed Map
Bad Weather Areas

LiveATC FAQ
Offer LiveATC feed
Contact LiveATC.net
Press Inquiries

LiveATC on iPhone
LiveATC on Android

Windows Phone
Windows 8/10

LiveATC Mobile
(Mobile browser)

ATC Audio Archives
Interesting Recordings

LiveATC Forums


Home Page
About LiveATC.net
Make a Donation
Terms of Use
Privacy Policy

Canadian Air Freqs

AIRMETs/SIGMETs

FAA Airport Status
Nat'l Airspace Status
Arrival Demand Charts


Server Software By:
Icecast.org
Liquidsoap